createdAt,value
2022-11-04T00:00:33.336Z,99583.03
2022-11-04T00:03:03.165Z,99577.69
2022-11-04T00:05:32.903Z,99569.81
2022-11-04T00:08:15.103Z,99573.28
2022-11-04T00:10:59.933Z,99568.00
2022-11-04T00:13:32.169Z,99568.00
2022-11-04T00:16:16.935Z,99574.16
2022-11-04T00:18:46.736Z,99597.88
2022-11-04T00:21:28.904Z,99602.25
2022-11-04T00:24:11.091Z,99589.88
2022-11-04T00:26:55.924Z,99599.53
2022-11-04T00:29:26.228Z,99600.41
2022-11-04T00:32:08.583Z,99601.25
2022-11-04T00:34:38.426Z,99619.69
2022-11-04T00:37:08.086Z,99630.22
2022-11-04T00:39:37.835Z,99639.03
2022-11-04T00:42:10.620Z,99635.47
2022-11-04T00:44:40.399Z,99643.38
2022-11-04T00:47:10.079Z,99638.94
2022-11-04T00:49:39.759Z,99643.31
2022-11-04T00:52:09.439Z,99639.75
2022-11-04T00:54:39.121Z,99638.84
2022-11-04T00:57:12.169Z,99642.28
2022-11-04T00:59:42.406Z,99641.38
2022-11-04T01:02:13.238Z,99651.00
2022-11-04T01:04:43.064Z,99650.94
2022-11-04T01:07:12.964Z,99657.94
2022-11-04T01:09:42.712Z,99664.09
2022-11-04T01:12:15.076Z,99666.72
2022-11-04T01:14:44.782Z,99664.06
2022-11-04T01:17:14.527Z,99686.03
2022-11-04T01:19:44.275Z,99685.13
2022-11-04T01:22:13.976Z,99682.50
2022-11-04T01:24:43.721Z,99681.59
2022-11-04T01:27:15.998Z,99671.97
2022-11-04T01:29:46.034Z,99684.25
2022-11-04T01:32:15.794Z,99709.75
2022-11-04T01:34:45.550Z,99713.25
2022-11-04T01:37:15.339Z,99722.91
2022-11-04T01:39:45.402Z,99722.94
2022-11-04T01:42:24.656Z,99722.91
2022-11-04T01:44:58.042Z,99720.25
2022-11-04T01:47:33.774Z,99726.44
2022-11-04T01:50:08.004Z,99724.63
2022-11-04T01:52:42.082Z,99747.47
2022-11-04T01:55:17.090Z,99733.41
2022-11-04T01:57:52.948Z,99729.88
2022-11-04T02:00:22.975Z,99743.94
2022-11-04T02:02:57.692Z,99751.88
2022-11-04T02:05:27.396Z,99770.28
2022-11-04T02:07:59.103Z,99774.69
2022-11-04T02:10:30.922Z,99779.91
2022-11-04T02:13:03.149Z,99780.81
2022-11-04T02:15:43.886Z,99786.09
2022-11-04T02:18:26.976Z,99787.81
2022-11-04T02:21:30.694Z,99787.81
2022-11-04T02:24:24.803Z,99787.81
2022-11-04T02:27:27.260Z,99786.06
2022-11-04T02:30:07.206Z,99789.59
2022-11-04T02:32:57.094Z,99794.84
2022-11-04T02:35:33.863Z,99789.59
2022-11-04T02:38:15.195Z,99793.06
2022-11-04T02:40:49.546Z,99796.59
2022-11-04T02:43:28.960Z,99793.94
2022-11-04T02:46:06.036Z,99802.75
2022-11-04T02:48:42.324Z,99805.41
2022-11-04T02:51:17.874Z,99800.06
2022-11-04T02:53:51.161Z,99807.09
2022-11-04T02:56:24.917Z,99810.53
2022-11-04T02:59:00.231Z,99815.75
2022-11-04T03:01:38.280Z,99822.78
2022-11-04T03:04:14.790Z,99836.78
2022-11-04T03:06:48.143Z,99847.25
2022-11-04T03:09:19.756Z,99849.91
2022-11-04T03:11:53.324Z,99851.63
2022-11-04T03:14:28.179Z,99863.03
2022-11-04T03:17:04.551Z,99870.06
2022-11-04T03:19:44.499Z,99873.59
2022-11-04T03:22:18.008Z,99881.50
2022-11-04T03:24:50.122Z,99891.16
2022-11-04T03:27:26.660Z,99892.91
2022-11-04T03:30:01.581Z,99899.94
2022-11-04T03:32:44.050Z,99911.41
2022-11-04T03:35:15.324Z,99914.00
2022-11-04T03:37:45.302Z,99915.75
2022-11-04T03:40:17.038Z,99914.91
2022-11-04T03:42:51.022Z,99920.19
2022-11-04T03:45:20.967Z,99934.25
2022-11-04T03:47:54.082Z,99936.91
2022-11-04T03:50:29.959Z,99943.88
2022-11-04T03:53:01.314Z,99945.63
2022-11-04T03:55:42.879Z,99949.09
2022-11-04T03:58:24.675Z,99946.44
2022-11-04T04:01:03.379Z,99956.94
2022-11-04T04:03:42.679Z,99959.53
2022-11-04T04:06:18.314Z,99968.25
2022-11-04T04:08:56.910Z,99992.81
2022-11-04T04:11:38.553Z,99986.63
2022-11-04T04:14:13.131Z,99994.41
2022-11-04T04:16:48.993Z,100001.41
2022-11-04T04:19:24.568Z,99994.34
2022-11-04T04:22:00.420Z,100011.88
2022-11-04T04:24:50.409Z,100005.75
2022-11-04T04:27:35.420Z,100009.25
2022-11-04T04:30:08.731Z,100010.97
2022-11-04T04:32:41.751Z,100010.97
2022-11-04T04:35:26.800Z,100018.00
2022-11-04T04:38:20.702Z,100020.59
2022-11-04T04:41:12.872Z,100034.63
2022-11-04T04:43:58.668Z,100040.78
2022-11-04T04:46:28.749Z,100037.22
2022-11-04T04:48:58.858Z,100045.09
2022-11-04T04:51:32.424Z,100046.81
2022-11-04T04:54:02.118Z,100047.66
2022-11-04T04:56:32.184Z,100047.63
2022-11-04T04:59:02.104Z,100051.13
2022-11-04T05:01:32.064Z,100057.25
2022-11-04T05:04:01.874Z,100058.13
2022-11-04T05:06:34.202Z,100063.41
2022-11-04T05:09:03.954Z,100075.69
2022-11-04T05:11:33.716Z,100083.53
2022-11-04T05:14:03.540Z,100076.50
2022-11-04T05:16:38.027Z,100086.97
2022-11-04T05:19:10.412Z,100081.69
2022-11-04T05:21:42.807Z,100093.97
2022-11-04T05:24:13.350Z,100094.84
2022-11-04T05:26:43.054Z,100099.22
2022-11-04T05:29:12.804Z,100110.63
2022-11-04T05:31:42.812Z,100116.78
2022-11-04T05:34:13.878Z,100126.47
2022-11-04T05:36:46.203Z,100126.53
2022-11-04T05:39:16.669Z,100129.22
2022-11-04T05:41:46.359Z,100131.03
2022-11-04T05:44:16.110Z,100137.19
2022-11-04T05:46:45.774Z,100134.56
2022-11-04T05:49:15.596Z,100130.19
2022-11-04T05:51:47.902Z,100136.28
2022-11-04T05:54:17.691Z,100134.56
2022-11-04T05:56:47.604Z,100147.69
2022-11-04T05:59:17.594Z,100139.75
2022-11-04T06:01:49.313Z,100144.13
2022-11-04T06:04:21.884Z,100147.59
2022-11-04T06:06:54.589Z,100144.03
2022-11-04T06:09:39.157Z,100148.38
2022-11-04T06:12:11.066Z,100161.47
2022-11-04T06:14:41.744Z,100167.56
2022-11-04T06:17:15.137Z,100163.19
2022-11-04T06:19:44.943Z,100170.19
2022-11-04T06:22:19.446Z,100184.19
2022-11-04T06:24:49.651Z,100182.44
2022-11-04T06:27:19.557Z,100188.53
2022-11-04T06:29:49.454Z,100178.88
2022-11-04T06:32:21.931Z,100181.56
2022-11-04T06:34:51.756Z,100183.31
2022-11-04T06:37:24.412Z,100189.50
2022-11-04T06:39:54.130Z,100193.94
2022-11-04T06:42:26.071Z,100196.63
2022-11-04T06:44:55.765Z,100195.81
2022-11-04T06:47:25.469Z,100197.59
2022-11-04T06:49:55.315Z,100202.88
2022-11-04T06:52:27.913Z,100198.47
2022-11-04T06:54:57.661Z,100203.69
2022-11-04T06:57:27.383Z,100211.66
2022-11-04T06:59:57.511Z,100211.66
2022-11-04T07:02:27.606Z,100215.19
2022-11-04T07:07:32.112Z,100226.66
2022-11-04T07:10:01.844Z,100229.34
2022-11-04T07:12:31.655Z,100241.69
2022-11-04T07:15:01.967Z,100247.84
2022-11-04T07:17:31.949Z,100247.88
2022-11-04T07:20:01.656Z,100254.94
2022-11-04T07:22:34.150Z,100255.84
2022-11-04T07:25:03.881Z,100261.16
2022-11-04T07:27:33.623Z,100257.66
2022-11-04T07:30:04.475Z,100264.66
2022-11-04T07:32:34.171Z,100270.81
2022-11-04T07:35:05.042Z,100283.09
2022-11-04T07:37:37.358Z,100276.94
2022-11-04T07:40:09.327Z,100287.44
2022-11-04T07:42:39.312Z,100297.97
2022-11-04T07:45:10.270Z,100305.81
2022-11-04T07:47:40.006Z,100302.25
2022-11-04T07:50:11.728Z,100308.34
2022-11-04T07:52:44.699Z,100303.94
2022-11-04T07:55:18.686Z,100309.16
2022-11-04T07:57:48.594Z,100318.84
2022-11-04T08:00:19.724Z,100326.78
2022-11-04T08:02:49.646Z,100329.41
2022-11-04T08:05:19.779Z,100333.75
2022-11-04T08:07:52.202Z,100339.81
2022-11-04T08:10:22.132Z,100345.09
2022-11-04T08:12:54.019Z,100352.09
2022-11-04T08:15:23.741Z,100362.63
2022-11-04T08:17:53.491Z,100358.25
2022-11-04T08:20:23.287Z,100366.09
2022-11-04T08:22:55.709Z,100370.44
2022-11-04T08:25:25.625Z,100368.59
2022-11-04T08:28:00.665Z,100369.38
2022-11-04T08:30:30.950Z,100365.81
2022-11-04T08:33:00.752Z,100368.53
2022-11-04T08:35:31.471Z,100363.16
2022-11-04T08:38:03.817Z,100371.97
2022-11-04T08:40:33.713Z,100384.22
2022-11-04T08:43:03.455Z,100371.97
2022-11-04T08:45:33.894Z,100376.38
2022-11-04T08:48:05.615Z,100380.78
2022-11-04T08:50:36.030Z,100379.91
2022-11-04T08:53:10.038Z,100383.50
2022-11-04T08:55:40.331Z,100387.09
2022-11-04T08:58:10.498Z,100381.00
2022-11-04T09:00:40.632Z,100379.31
2022-11-04T09:03:12.708Z,100379.31
2022-11-04T09:05:45.935Z,100387.34
2022-11-04T09:08:20.266Z,100382.13
2022-11-04T09:10:51.323Z,100393.69
2022-11-04T09:13:21.389Z,100406.09
2022-11-04T09:15:53.051Z,100404.47
2022-11-04T09:18:22.923Z,100412.47
2022-11-04T09:20:53.026Z,100415.16
2022-11-04T09:23:25.519Z,100425.63
2022-11-04T09:25:56.218Z,100437.06
2022-11-04T09:28:27.681Z,100430.00
2022-11-04T09:30:57.695Z,100427.34
2022-11-04T09:33:28.753Z,100434.47
2022-11-04T09:35:59.499Z,100437.22
2022-11-04T09:38:32.241Z,100437.34
2022-11-04T09:41:02.853Z,100437.44
2022-11-04T09:43:49.478Z,100437.50
2022-11-04T09:46:19.637Z,100439.34
2022-11-04T09:48:53.925Z,100448.19
2022-11-04T09:51:52.515Z,100448.25
2022-11-04T09:54:25.853Z,100454.47
2022-11-04T09:56:59.868Z,100455.38
2022-11-04T09:59:32.839Z,100465.06
2022-11-04T10:02:22.705Z,100468.69
2022-11-04T10:05:04.949Z,100470.44
2022-11-04T10:07:56.365Z,100465.22
2022-11-04T10:10:39.281Z,100472.31
2022-11-04T10:13:24.144Z,100478.63
2022-11-04T10:16:15.906Z,100479.75
2022-11-04T10:19:00.821Z,100487.00
2022-11-04T10:21:42.563Z,100488.97
2022-11-04T10:24:25.781Z,100502.25
2022-11-04T10:27:03.603Z,100505.03
2022-11-04T10:29:39.637Z,100510.38
2022-11-04T10:32:22.141Z,100513.94
2022-11-04T10:34:58.054Z,100521.91
2022-11-04T10:37:29.486Z,100525.47
2022-11-04T10:40:07.896Z,100524.69
2022-11-04T10:42:41.550Z,100522.16
2022-11-04T10:45:15.120Z,100522.25
2022-11-04T10:47:51.425Z,100520.53
2022-11-04T10:50:31.803Z,100520.63
2022-11-04T10:53:17.874Z,100519.81
2022-11-04T10:56:07.724Z,100529.50
2022-11-04T10:58:48.061Z,100531.28
2022-11-04T11:01:29.879Z,100535.75
2022-11-04T11:04:01.181Z,100537.50
2022-11-04T11:06:32.875Z,100556.03
2022-11-04T11:09:15.498Z,100557.78
2022-11-04T11:11:48.926Z,100559.53
2022-11-04T11:14:35.252Z,100564.78
2022-11-04T11:17:23.224Z,100577.09
2022-11-04T11:19:58.119Z,100592.94
2022-11-04T11:22:38.588Z,100583.19
2022-11-04T11:25:25.293Z,100591.81
2022-11-04T11:27:57.874Z,100595.09
2022-11-04T11:30:58.537Z,100590.50
2022-11-04T11:33:32.405Z,100596.41
2022-11-04T11:36:07.108Z,100610.28
2022-11-04T11:38:37.765Z,100595.22
2022-11-04T11:41:24.321Z,100582.81
2022-11-04T11:43:58.072Z,100578.34
2022-11-04T11:46:34.671Z,100599.41
2022-11-04T11:49:06.418Z,100604.69
2022-11-04T11:51:39.451Z,100609.13
2022-11-04T11:54:20.005Z,100622.38
2022-11-04T12:02:52.303Z,100618.94
2022-11-04T12:11:31.245Z,100620.69
2022-11-04T12:14:06.690Z,100622.47
2022-11-04T12:16:43.872Z,100626.06
2022-11-04T12:19:38.108Z,100628.75
2022-11-04T12:22:21.372Z,100627.06
2022-11-04T12:24:58.181Z,100626.22
2022-11-04T12:27:37.122Z,100626.28
2022-11-04T12:30:11.073Z,100624.59
2022-11-04T12:32:52.038Z,100637.00
2022-11-04T12:35:40.483Z,100638.88
2022-11-04T12:38:23.664Z,100648.59
2022-11-04T12:44:01.826Z,100643.44
2022-11-04T12:46:39.439Z,100641.69
2022-11-04T12:49:29.688Z,100644.41
2022-11-04T12:52:16.495Z,100639.19
2022-11-04T12:55:00.894Z,100641.88
2022-11-04T12:57:39.664Z,100644.53
2022-11-04T13:00:15.520Z,100645.47
2022-11-04T13:02:52.068Z,100660.53
2022-11-04T13:05:34.153Z,100661.56
2022-11-04T13:08:15.304Z,100662.59
2022-11-04T13:10:51.184Z,100661.81
2022-11-04T13:13:25.187Z,100663.69
2022-11-04T13:15:58.982Z,100665.50
2022-11-04T13:18:33.505Z,100669.03
2022-11-04T13:21:07.839Z,100674.44
2022-11-04T13:23:47.008Z,100674.44
2022-11-04T13:26:20.532Z,100684.16
2022-11-04T13:29:07.340Z,100681.53
2022-11-04T13:31:49.602Z,100685.06
2022-11-04T13:34:33.421Z,100688.53
2022-11-04T13:37:12.832Z,100688.53
2022-11-04T13:39:50.370Z,100690.19
2022-11-04T13:42:42.728Z,100692.78
2022-11-04T13:45:21.987Z,100690.97
2022-11-04T13:47:56.617Z,100696.25
2022-11-04T13:50:39.990Z,100702.47
2022-11-04T13:53:12.854Z,100705.13
2022-11-04T13:55:56.223Z,100706.00
2022-11-04T13:58:31.461Z,100705.13
2022-11-04T14:01:15.539Z,100717.53
2022-11-04T14:03:57.555Z,100721.16
2022-11-04T14:06:59.052Z,100706.19
2022-11-04T14:09:53.853Z,100720.31
2022-11-04T14:12:44.778Z,100723.78
2022-11-04T14:15:19.910Z,100726.28
2022-11-04T14:18:12.107Z,100729.75
2022-11-04T14:21:08.301Z,100742.91
2022-11-04T14:23:39.874Z,100741.91
2022-11-04T14:26:12.296Z,100732.06
2022-11-04T14:28:48.123Z,100739.88
2022-11-04T14:31:37.106Z,100741.47
2022-11-04T14:34:08.471Z,100741.41
2022-11-04T14:36:41.667Z,100746.63
2022-11-04T14:39:27.500Z,100751.88
2022-11-04T14:42:02.063Z,100747.41
2022-11-04T14:44:38.184Z,100757.91
2022-11-04T14:47:20.660Z,100761.41
2022-11-04T14:49:53.137Z,100765.78
2022-11-04T14:52:29.007Z,100772.81
2022-11-04T14:55:05.504Z,100766.59
2022-11-04T14:57:40.700Z,100786.00
2022-11-04T15:04:10.309Z,100778.78
2022-11-04T15:06:40.604Z,100790.22
2022-11-04T15:09:25.706Z,100790.97
2022-11-04T15:12:13.475Z,100788.22
2022-11-04T15:14:43.179Z,100786.38
2022-11-04T15:17:21.795Z,100787.19
2022-11-04T15:19:54.398Z,100798.50
2022-11-04T15:22:25.360Z,100804.66
2022-11-04T15:24:56.862Z,100812.50
2022-11-04T15:27:31.224Z,100819.47
2022-11-04T15:30:04.112Z,100823.81
2022-11-04T15:32:36.689Z,100832.56
2022-11-04T15:35:07.001Z,100833.38
2022-11-04T15:37:38.571Z,100844.78
2022-11-04T15:40:09.988Z,100851.72
2022-11-04T15:42:37.212Z,100850.75
2022-11-04T15:45:28.825Z,100849.81
2022-11-04T15:48:33.877Z,100851.47
2022-11-04T15:51:22.817Z,100852.22
2022-11-04T15:53:56.210Z,100859.22
2022-11-04T15:56:28.895Z,100854.78
2022-11-04T15:59:00.411Z,100860.00
2022-11-04T16:01:32.992Z,100870.53
2022-11-04T16:04:05.587Z,100866.13
2022-11-04T16:06:40.476Z,100874.03
2022-11-04T16:09:23.220Z,100870.47
2022-11-04T16:12:09.717Z,100882.69
2022-11-04T16:14:39.503Z,100876.41
2022-11-04T16:17:13.340Z,100879.84
2022-11-04T16:19:50.398Z,100878.91
2022-11-04T16:22:24.171Z,100886.81
2022-11-04T16:24:56.492Z,100885.03
2022-11-04T16:27:26.927Z,100885.03
2022-11-04T16:30:04.420Z,100885.03
2022-11-04T16:32:44.142Z,100887.59
2022-11-04T16:35:26.637Z,100892.03
2022-11-04T16:37:59.670Z,100892.88
2022-11-04T16:40:30.043Z,100898.16
2022-11-04T16:43:00.518Z,100905.19
2022-11-04T16:45:33.655Z,100908.69
2022-11-04T16:48:03.718Z,100917.50
2022-11-04T16:50:36.112Z,100928.91
2022-11-04T16:53:06.104Z,100926.28
2022-11-04T16:55:36.019Z,100928.91
2022-11-04T16:58:08.725Z,100931.56
2022-11-04T17:00:38.415Z,100935.94
2022-11-04T17:03:21.965Z,100932.41
2022-11-04T17:05:56.833Z,100939.38
2022-11-04T17:08:27.342Z,100938.44
2022-11-04T17:10:57.103Z,100938.34
2022-11-04T17:13:29.784Z,100939.16
2022-11-04T17:16:02.423Z,100945.19
2022-11-04T17:18:33.910Z,100949.50
2022-11-04T17:21:10.079Z,100955.56
2022-11-04T17:23:39.972Z,100950.16
2022-11-04T17:26:09.750Z,100950.97
2022-11-04T17:28:39.795Z,100964.91
2022-11-04T17:31:09.657Z,100967.41
2022-11-04T17:33:39.359Z,100969.97
2022-11-04T17:36:18.217Z,100969.88
2022-11-04T17:38:47.989Z,100974.19
2022-11-04T17:41:30.090Z,100979.38
2022-11-04T17:44:05.728Z,100982.81
2022-11-04T17:46:38.207Z,100986.25
2022-11-04T17:49:14.503Z,100991.47
2022-11-04T17:51:48.833Z,100994.00
2022-11-04T17:54:19.276Z,101004.50
2022-11-04T17:56:49.299Z,101005.31
2022-11-04T17:59:19.806Z,101000.03
2022-11-04T18:01:50.024Z,101006.03
2022-11-04T18:04:22.540Z,101012.97
2022-11-04T18:06:59.847Z,101006.75
2022-11-04T18:09:32.865Z,101004.91
2022-11-04T18:12:15.069Z,101012.78
2022-11-04T18:14:44.926Z,101005.78
2022-11-04T18:17:14.732Z,101008.34
2022-11-04T18:19:44.759Z,101013.59
2022-11-04T18:22:17.031Z,101011.81
2022-11-04T18:24:47.960Z,101020.53
2022-11-04T18:27:17.890Z,101026.63
2022-11-04T18:29:47.606Z,101022.19
2022-11-04T18:32:17.320Z,101024.78
2022-11-04T18:34:47.281Z,101023.00
2022-11-04T18:37:20.601Z,101027.31
2022-11-04T18:39:50.380Z,101023.69
2022-11-04T18:42:20.207Z,101025.28
2022-11-04T18:44:49.906Z,101038.31
2022-11-04T18:47:20.295Z,101033.00
2022-11-04T18:49:50.231Z,101035.63
2022-11-04T18:52:22.549Z,101034.75
2022-11-04T18:54:52.250Z,101039.94
2022-11-04T18:57:21.983Z,101046.88
2022-11-04T18:59:51.689Z,101042.47
2022-11-04T19:02:24.749Z,101047.72
2022-11-04T19:04:54.750Z,101046.78
2022-11-04T19:07:27.096Z,101044.94
2022-11-04T19:09:57.267Z,101043.16
2022-11-04T19:12:39.399Z,101058.06
2022-11-04T19:15:10.487Z,101062.34
2022-11-04T19:17:40.214Z,101052.53
2022-11-04T19:20:13.034Z,101051.56
2022-11-04T19:22:45.840Z,101057.59
2022-11-04T19:25:15.799Z,101061.81
2022-11-04T19:27:45.571Z,101068.75
2022-11-04T19:30:16.194Z,101073.94
2022-11-04T19:32:45.955Z,101069.41
2022-11-04T19:35:15.814Z,101078.88
2022-11-04T19:37:48.314Z,101085.69
2022-11-04T19:40:18.067Z,101083.84
2022-11-04T19:43:00.218Z,101085.53
2022-11-04T19:45:30.007Z,101083.78
2022-11-04T19:47:59.863Z,101088.03
2022-11-04T19:50:29.607Z,101094.06
2022-11-04T19:53:02.038Z,101089.53
2022-11-04T19:55:33.351Z,101091.13
2022-11-04T19:58:03.055Z,101087.56
2022-11-04T20:00:33.755Z,101090.13
2022-11-04T20:03:03.494Z,101093.53
2022-11-04T20:05:33.228Z,101090.00
2022-11-04T20:08:06.332Z,101103.97
2022-11-04T20:10:39.487Z,101107.38
2022-11-04T20:13:22.147Z,101101.19
2022-11-04T20:15:51.919Z,101108.88
2022-11-04T20:18:21.608Z,101107.00
2022-11-04T20:20:51.370Z,101099.91
2022-11-04T20:23:23.696Z,101114.63
2022-11-04T20:25:53.472Z,101112.66
2022-11-04T20:28:23.177Z,101109.84
2022-11-04T20:30:52.847Z,101111.41
2022-11-04T20:33:22.547Z,101112.13
2022-11-04T20:35:52.304Z,101130.38
2022-11-04T20:38:24.615Z,101122.38
2022-11-04T20:40:54.330Z,101130.22
2022-11-04T20:43:24.060Z,101138.00
2022-11-04T20:45:53.758Z,101143.13
2022-11-04T20:48:23.424Z,101149.38
2022-11-04T20:50:53.209Z,101148.41
2022-11-04T20:53:25.667Z,101150.88
2022-11-04T20:55:55.419Z,101154.34
2022-11-04T20:58:25.130Z,101156.84
2022-11-04T21:00:54.850Z,101154.09
2022-11-04T21:03:24.610Z,101153.19
2022-11-04T21:05:54.437Z,101148.78
2022-11-04T21:08:27.254Z,101164.59
2022-11-04T21:10:59.091Z,101162.78
2022-11-04T21:13:28.905Z,101166.38
2022-11-04T21:16:01.030Z,101171.72
2022-11-04T21:18:30.887Z,101175.13
2022-11-04T21:21:00.592Z,101178.63
2022-11-04T21:23:34.243Z,101178.44
2022-11-04T21:26:10.396Z,101182.72
2022-11-04T21:28:40.163Z,101182.59
2022-11-04T21:31:14.662Z,101194.63
2022-11-04T21:33:44.455Z,101204.03
2022-11-04T21:36:15.601Z,101203.94
2022-11-04T21:38:48.133Z,101203.06
2022-11-04T21:41:22.339Z,101207.50
2022-11-04T21:43:56.873Z,101209.19
2022-11-04T21:46:27.141Z,101211.81
2022-11-04T21:48:58.908Z,101215.41
2022-11-04T21:51:30.592Z,101219.00
2022-11-04T21:54:03.202Z,101226.06
2022-11-04T21:56:33.855Z,101233.03
2022-11-04T21:59:04.406Z,101233.88
2022-11-04T22:01:34.739Z,101239.94
2022-11-04T22:04:05.306Z,101238.28
2022-11-04T22:06:36.064Z,101240.09
2022-11-04T22:09:12.606Z,101243.53
2022-11-04T22:11:42.318Z,101241.88
2022-11-04T22:14:15.154Z,101243.66
2022-11-04T22:16:44.854Z,101236.75
2022-11-04T22:19:16.221Z,101232.47
2022-11-04T22:21:48.346Z,101234.44
2022-11-04T22:24:21.779Z,101244.22
2022-11-04T22:26:51.499Z,101246.06
2022-11-04T22:29:21.572Z,101247.94
2022-11-04T22:31:51.295Z,101244.53
2022-11-04T22:34:20.995Z,101247.31
2022-11-04T22:36:50.769Z,101244.75
2022-11-04T22:39:23.247Z,101243.94
2022-11-04T22:41:52.983Z,101250.97
2022-11-04T22:44:22.803Z,101244.06
2022-11-04T22:46:52.527Z,101243.16
2022-11-04T22:49:22.234Z,101251.09
2022-11-04T22:51:52.047Z,101244.09
2022-11-04T22:54:24.834Z,101252.91
2022-11-04T22:56:54.668Z,101249.34
2022-11-04T22:59:24.499Z,101259.06
2022-11-04T23:01:54.732Z,101245.16
2022-11-04T23:04:24.661Z,101252.19
2022-11-04T23:06:55.814Z,101260.97
2022-11-04T23:09:28.127Z,101262.69
2022-11-04T23:12:10.541Z,101268.81
2022-11-04T23:14:52.720Z,101266.09
2022-11-04T23:17:36.612Z,101260.78
2022-11-04T23:20:11.146Z,101274.75
2022-11-04T23:22:53.424Z,101279.09
2022-11-04T23:25:26.602Z,101277.25
2022-11-04T23:28:10.767Z,101275.38
2022-11-04T23:30:44.027Z,101279.66
2022-11-04T23:33:16.619Z,101282.22
2022-11-04T23:36:01.466Z,101281.28
2022-11-04T23:38:33.347Z,101287.22
2022-11-04T23:41:20.631Z,101286.09
2022-11-04T23:43:50.955Z,101284.16
2022-11-04T23:46:36.560Z,101295.38
2022-11-04T23:49:21.713Z,101296.94
2022-11-04T23:52:03.817Z,101299.41
2022-11-04T23:54:46.071Z,101294.75
2022-11-04T23:57:32.588Z,101293.63
